Time;durP1;ratioP1;P1;durP2;ratioP2;P2;SDS_P1;SDS_P2;PMS_P1;PMS_P2;Temp;Humidity;BMP_temperature;BMP_pressure;BME280_temperature;BME280_humidity;BME280_pressure;Samples;Min_cycle;Max_cycle;Signal;HPM_P1;HPM_P2
2022/11/23 00:01:18;;;;;;;8.70;2.83;;;7.60;1.00;;;;;;5021056;28;20859;-70
2022/11/23 00:03:45;;;;;;;4.77;2.30;;;7.60;1.00;;;;;;5028668;28;20225;-70
2022/11/23 00:06:11;;;;;;;3.53;2.10;;;7.70;1.00;;;;;;5025413;28;20440;-70
2022/11/23 00:08:37;;;;;;;10.33;2.70;;;7.70;1.00;;;;;;5030581;28;20451;-70
2022/11/23 00:11:03;;;;;;;5.40;2.20;;;7.80;1.00;;;;;;5032074;28;20201;-69
2022/11/23 00:13:28;;;;;;;11.53;2.30;;;7.80;1.00;;;;;;5027993;28;20745;-68
2022/11/23 00:15:54;;;;;;;8.23;2.50;;;8.70;1.00;;;;;;5031067;28;20186;-70
2022/11/23 00:18:20;;;;;;;5.40;2.33;;;7.90;1.00;;;;;;5032477;28;20284;-72
2022/11/23 00:20:45;;;;;;;8.50;2.70;;;7.90;1.00;;;;;;5021993;28;20206;-72
2022/11/23 00:23:11;;;;;;;10.40;3.23;;;7.90;1.00;;;;;;5029809;28;20277;-70
2022/11/23 00:25:36;;;;;;;6.63;3.37;;;7.90;1.00;;;;;;5029988;28;20189;-70
2022/11/23 00:28:02;;;;;;;7.60;3.10;;;7.90;1.00;;;;;;5032991;28;20220;-70
2022/11/23 00:30:30;;;;;;;9.03;3.70;;;7.90;1.00;;;;;;5031346;28;20224;-71
2022/11/23 00:32:56;;;;;;;9.30;3.67;;;7.90;1.00;;;;;;5026753;28;20327;-71
2022/11/23 00:35:22;;;;;;;14.30;3.43;;;7.90;1.00;;;;;;5026731;28;20455;-71
2022/11/23 00:37:48;;;;;;;7.67;3.07;;;7.10;1.00;;;;;;5028775;28;20625;-70
2022/11/23 00:40:14;;;;;;;5.80;2.87;;;7.80;1.00;;;;;;5031640;28;20491;-70
2022/11/23 00:42:39;;;;;;;7.40;2.47;;;7.80;1.00;;;;;;5032219;28;20181;-71
2022/11/23 00:45:05;;;;;;;4.17;2.20;;;7.80;1.00;;;;;;5030675;28;20454;-70
2022/11/23 00:47:31;;;;;;;5.80;2.27;;;7.80;1.00;;;;;;5027093;28;20181;-71
2022/11/23 00:49:56;;;;;;;5.73;2.40;;;7.80;1.00;;;;;;5029584;28;20812;-70
2022/11/23 00:52:22;;;;;;;5.33;2.20;;;7.80;1.00;;;;;;5026721;28;20170;-70
2022/11/23 00:54:48;;;;;;;3.67;2.17;;;7.70;1.00;;;;;;5031826;28;20177;-70
2022/11/23 00:57:13;;;;;;;4.97;2.43;;;7.70;1.00;;;;;;5031280;28;20208;-72
2022/11/23 00:59:39;;;;;;;5.63;2.20;;;7.70;1.00;;;;;;5030828;28;20188;-71
2022/11/23 01:02:04;;;;;;;5.10;2.60;;;7.70;1.00;;;;;;5030396;28;20637;-71
2022/11/23 01:04:30;;;;;;;7.87;2.47;;;7.70;1.00;;;;;;5025491;28;20233;-71
2022/11/23 01:06:56;;;;;;;6.40;1.90;;;7.80;1.00;;;;;;5031956;28;20174;-71
2022/11/23 01:09:25;;;;;;;12.47;2.80;;;7.80;1.00;;;;;;5030325;28;20574;-70
2022/11/23 01:11:54;;;;;;;9.47;2.80;;;7.90;1.00;;;;;;5030906;28;20440;-70
2022/11/23 01:14:20;;;;;;;5.10;2.13;;;7.90;1.00;;;;;;5028840;28;20441;-71
2022/11/23 01:16:47;;;;;;;5.00;2.13;;;7.80;1.00;;;;;;5030574;28;20478;-71
2022/11/23 01:19:15;;;;;;;4.83;1.90;;;7.80;1.00;;;;;;5030077;28;20444;-70
2022/11/23 01:21:41;;;;;;;9.47;2.57;;;7.80;1.00;;;;;;5031324;28;20433;-71
2022/11/23 01:24:09;;;;;;;6.17;2.17;;;7.80;1.00;;;;;;5026141;28;20513;-70
2022/11/23 01:26:34;;;;;;;5.27;2.20;;;7.80;1.00;;;;;;5030937;28;20532;-70
2022/11/23 01:29:00;;;;;;;5.33;2.23;;;7.80;1.00;;;;;;5019563;28;20592;-71
2022/11/23 01:31:26;;;;;;;5.80;1.80;;;7.90;1.00;;;;;;5053746;22;20562;-69
2022/11/23 01:33:57;;;;;;;4.90;2.30;;;7.90;1.00;;;;;;5042337;28;20203;-70
2022/11/23 01:36:28;;;;;;;6.77;2.00;;;8.00;1.00;;;;;;5046405;28;20263;-70
2022/11/23 01:38:54;;;;;;;4.60;2.37;;;8.00;1.00;;;;;;5045783;28;20431;-70
2022/11/23 01:41:23;;;;;;;5.33;3.30;;;8.10;1.00;;;;;;5045480;28;20460;-70
2022/11/23 01:43:49;;;;;;;6.20;2.07;;;8.10;1.00;;;;;;5038769;28;20476;-70
2022/11/23 01:46:16;;;;;;;4.40;2.07;;;8.10;1.00;;;;;;5027853;28;20479;-70
2022/11/23 01:48:55;;;;;;;5.53;2.17;;;8.10;1.00;;;;;;5042064;28;20438;-70
2022/11/23 01:51:30;;;;;;;6.63;2.13;;;8.20;1.00;;;;;;5031216;28;20617;-70
2022/11/23 01:54:10;;;;;;;6.47;2.33;;;8.20;1.00;;;;;;5030721;28;20506;-70
2022/11/23 01:56:40;;;;;;;5.10;1.90;;;8.20;1.00;;;;;;5028001;28;20440;-70
2022/11/23 01:59:10;;;;;;;4.10;2.10;;;8.20;1.00;;;;;;5038601;28;20409;-70
2022/11/23 02:01:36;;;;;;;4.17;1.67;;;8.20;1.00;;;;;;5028225;28;20691;-69
2022/11/23 02:04:02;;;;;;;3.10;1.90;;;8.20;1.00;;;;;;5030463;28;20444;-70
2022/11/23 02:06:30;;;;;;;4.50;1.90;;;8.20;1.00;;;;;;5025945;28;20437;-70
2022/11/23 02:08:56;;;;;;;6.63;2.63;;;8.20;1.00;;;;;;5030568;28;20948;-70
2022/11/23 02:11:22;;;;;;;5.80;2.30;;;8.10;1.00;;;;;;5042104;28;20432;-70
2022/11/23 02:13:49;;;;;;;4.83;2.10;;;8.10;1.00;;;;;;5039441;28;20436;-70
2022/11/23 02:16:17;;;;;;;5.03;2.30;;;8.10;1.00;;;;;;5042603;28;20239;-70
2022/11/23 02:18:46;;;;;;;3.13;1.80;;;8.10;1.00;;;;;;5041917;28;20439;-70
2022/11/23 02:21:12;;;;;;;6.50;2.00;;;8.10;1.00;;;;;;5042686;28;20448;-70
2022/11/23 02:23:49;;;;;;;5.63;2.40;;;8.10;1.00;;;;;;5040956;28;20455;-70
2022/11/23 02:26:23;;;;;;;6.50;2.40;;;8.00;1.00;;;;;;5044356;28;20176;-70
2022/11/23 02:29:10;;;;;;;5.50;2.10;;;8.00;1.00;;;;;;5024437;28;20842;-70
2022/11/23 02:31:36;;;;;;;4.57;1.70;;;8.00;1.00;;;;;;5037814;28;20518;-68
2022/11/23 02:34:02;;;;;;;8.33;2.30;;;8.00;1.00;;;;;;5029492;28;20501;-70
2022/11/23 02:36:33;;;;;;;3.93;1.70;;;8.00;1.00;;;;;;5034853;28;20181;-70
2022/11/23 02:39:02;;;;;;;4.50;1.90;;;8.00;1.00;;;;;;5037950;28;20637;-70
2022/11/23 02:41:34;;;;;;;3.67;2.07;;;8.00;1.00;;;;;;5033172;28;20546;-70
2022/11/23 02:44:02;;;;;;;5.10;2.00;;;7.90;1.00;;;;;;5015637;28;20452;-70
2022/11/23 02:46:28;;;;;;;5.57;2.10;;;7.90;1.00;;;;;;5035547;28;20413;-70
2022/11/23 02:48:53;;;;;;;7.77;2.30;;;7.90;1.00;;;;;;5039169;28;20528;-69
2022/11/23 02:51:19;;;;;;;5.13;1.90;;;7.80;1.00;;;;;;5022014;28;20540;-70
2022/11/23 02:53:44;;;;;;;5.70;1.70;;;7.90;1.00;;;;;;5029341;28;20186;-70
2022/11/23 02:56:10;;;;;;;5.27;2.07;;;7.90;1.00;;;;;;5039789;28;20188;-70
2022/11/23 02:58:35;;;;;;;7.97;2.03;;;7.90;1.00;;;;;;5032992;28;20592;-70
2022/11/23 03:01:01;;;;;;;3.03;1.63;;;7.90;1.00;;;;;;5034748;28;20197;-69
2022/11/23 03:03:26;;;;;;;5.33;2.30;;;7.90;1.00;;;;;;5032262;28;20201;-70
2022/11/23 03:05:52;;;;;;;5.20;1.60;;;7.90;1.00;;;;;;5036996;28;20178;-70
2022/11/23 03:08:17;;;;;;;4.70;1.93;;;7.90;1.00;;;;;;5037947;28;20177;-69
2022/11/23 03:10:43;;;;;;;7.10;2.20;;;7.90;1.00;;;;;;5028424;28;20175;-70
2022/11/23 03:13:08;;;;;;;4.47;2.20;;;7.90;1.00;;;;;;5034181;28;20173;-70
2022/11/23 03:15:34;;;;;;;5.60;1.70;;;7.90;1.00;;;;;;5037361;28;20244;-70
2022/11/23 03:17:59;;;;;;;4.67;1.70;;;8.00;1.00;;;;;;5010184;28;20225;-70
2022/11/23 03:20:25;;;;;;;3.97;1.83;;;8.00;1.00;;;;;;5029951;28;20193;-70
2022/11/23 03:22:50;;;;;;;4.47;1.70;;;8.00;1.00;;;;;;5037691;28;20296;-70
2022/11/23 03:25:16;;;;;;;4.47;1.90;;;8.00;1.00;;;;;;5035328;28;20607;-70
2022/11/23 03:27:41;;;;;;;5.93;1.93;;;8.10;1.00;;;;;;5045780;28;20235;-70
2022/11/23 03:30:08;;;;;;;3.37;1.90;;;8.10;1.00;;;;;;5034382;28;20185;-69
2022/11/23 03:32:35;;;;;;;4.40;1.90;;;8.10;1.00;;;;;;5020349;28;20246;-70
2022/11/23 03:35:01;;;;;;;3.10;1.80;;;8.10;1.00;;;;;;5031234;28;20526;-70
2022/11/23 03:37:27;;;;;;;5.33;1.80;;;8.10;1.00;;;;;;5035171;28;20439;-70
2022/11/23 03:39:52;;;;;;;4.83;1.57;;;8.20;1.00;;;;;;5038886;28;20799;-70
2022/11/23 03:42:18;;;;;;;8.33;2.00;;;8.20;1.00;;;;;;5040764;28;20200;-70
2022/11/23 03:44:43;;;;;;;4.33;1.70;;;8.20;1.00;;;;;;5037627;28;20303;-71
2022/11/23 03:47:09;;;;;;;7.33;2.10;;;8.20;1.00;;;;;;5036760;28;20185;-70
2022/11/23 03:49:35;;;;;;;8.67;1.73;;;8.20;1.00;;;;;;5029274;28;20197;-70
2022/11/23 03:52:00;;;;;;;8.20;1.67;;;8.20;1.00;;;;;;5029402;28;20969;-70
2022/11/23 03:54:26;;;;;;;8.47;1.90;;;8.10;1.00;;;;;;5035356;28;20221;-70
2022/11/23 03:56:51;;;;;;;4.90;1.80;;;8.10;1.00;;;;;;5035922;28;20236;-70
2022/11/23 03:59:17;;;;;;;4.13;1.67;;;8.10;1.00;;;;;;5033681;28;20180;-70
2022/11/23 04:01:42;;;;;;;6.83;2.07;;;8.10;1.00;;;;;;5031805;28;20202;-70
2022/11/23 04:04:08;;;;;;;3.50;1.70;;;8.10;1.00;;;;;;5027790;28;20627;-70
2022/11/23 04:06:34;;;;;;;3.17;1.60;;;8.10;1.00;;;;;;5029611;28;20173;-70
2022/11/23 04:08:59;;;;;;;8.73;1.80;;;8.10;1.00;;;;;;5034414;28;20595;-70
2022/11/23 04:11:25;;;;;;;7.07;1.93;;;8.10;1.00;;;;;;5045992;28;20188;-70
2022/11/23 04:13:50;;;;;;;5.83;1.90;;;8.20;1.00;;;;;;5027630;28;20679;-70
2022/11/23 04:16:16;;;;;;;4.87;1.60;;;8.20;1.00;;;;;;5036964;28;20181;-68
2022/11/23 04:18:41;;;;;;;4.20;1.60;;;8.20;1.00;;;;;;5037795;28;20188;-70
2022/11/23 04:21:07;;;;;;;5.30;1.90;;;8.20;1.00;;;;;;5048321;28;20197;-69
2022/11/23 04:23:32;;;;;;;4.63;1.60;;;8.30;1.00;;;;;;5029137;28;20205;-70
2022/11/23 04:25:58;;;;;;;4.07;1.70;;;8.30;1.00;;;;;;5022300;28;20236;-69
2022/11/23 04:28:23;;;;;;;7.27;2.00;;;8.30;1.00;;;;;;5035549;28;20552;-71
2022/11/23 04:30:49;;;;;;;7.67;1.93;;;8.30;1.00;;;;;;5046085;28;20166;-70
2022/11/23 04:33:14;;;;;;;4.77;1.80;;;8.30;1.00;;;;;;5027776;28;20209;-70
2022/11/23 04:35:40;;;;;;;3.27;1.60;;;8.30;1.00;;;;;;5028454;28;20244;-70
2022/11/23 04:38:05;;;;;;;4.63;1.70;;;8.30;1.00;;;;;;5036897;28;20625;-70
2022/11/23 04:40:31;;;;;;;5.93;1.90;;;;;;;;;;5035057;28;20667;-69
2022/11/23 04:42:57;;;;;;;2.63;1.50;;;8.30;1.00;;;;;;5034734;28;20269;-70
2022/11/23 04:45:23;;;;;;;5.50;1.90;;;8.30;1.00;;;;;;5032066;28;20177;-70
2022/11/23 04:47:49;;;;;;;4.17;1.70;;;8.30;1.00;;;;;;5039405;28;20247;-70
2022/11/23 04:50:15;;;;;;;8.47;1.70;;;8.30;1.00;;;;;;5038845;28;20657;-70
2022/11/23 04:52:40;;;;;;;5.27;1.87;;;8.30;1.00;;;;;;5038820;28;20561;-70
2022/11/23 04:55:07;;;;;;;3.63;1.53;;;8.30;1.00;;;;;;5031760;28;20447;-70
2022/11/23 04:57:32;;;;;;;2.33;1.60;;;8.30;1.00;;;;;;5029981;28;20213;-70
2022/11/23 04:59:58;;;;;;;7.03;2.13;;;8.30;1.00;;;;;;5042984;28;20451;-70
2022/11/23 05:02:24;;;;;;;3.50;1.80;;;8.30;1.00;;;;;;5033188;28;20223;-70
2022/11/23 05:04:49;;;;;;;3.10;1.43;;;8.20;1.00;;;;;;5051288;28;20548;-70
2022/11/23 05:07:15;;;;;;;9.07;1.73;;;8.20;1.00;;;;;;5042285;28;20181;-71
2022/11/23 05:09:41;;;;;;;13.20;2.10;;;8.20;1.00;;;;;;5043131;28;20165;-70
2022/11/23 05:12:06;;;;;;;4.20;2.10;;;8.20;1.00;;;;;;5021580;28;20194;-70
2022/11/23 05:14:32;;;;;;;6.17;2.50;;;8.20;1.00;;;;;;5031232;28;20196;-70
2022/11/23 05:16:57;;;;;;;6.70;3.40;;;8.20;1.00;;;;;;5042673;28;20177;-70
2022/11/23 05:19:23;;;;;;;4.57;2.80;;;8.20;1.00;;;;;;5043223;28;20568;-70
2022/11/23 05:21:48;;;;;;;7.03;2.40;;;8.20;1.00;;;;;;5042390;28;20293;-70
2022/11/23 05:24:14;;;;;;;6.40;2.70;;;8.20;1.00;;;;;;5043310;28;20203;-70
2022/11/23 05:26:39;;;;;;;5.57;3.03;;;8.20;1.00;;;;;;5034176;28;20202;-70
2022/11/23 05:29:05;;;;;;;4.00;2.23;;;8.10;1.00;;;;;;5043073;28;20173;-70
2022/11/23 05:31:30;;;;;;;4.40;2.53;;;8.10;1.00;;;;;;5040914;28;20217;-70
2022/11/23 05:33:56;;;;;;;5.17;2.43;;;8.10;1.00;;;;;;5030039;28;20180;-68
2022/11/23 05:36:21;;;;;;;4.10;2.20;;;8.10;1.00;;;;;;5034879;28;20602;-71
2022/11/23 05:38:47;;;;;;;6.00;2.30;;;8.10;1.00;;;;;;5047046;28;20383;-70
2022/11/23 05:41:12;;;;;;;3.60;2.27;;;8.00;1.00;;;;;;5037778;28;20236;-70
2022/11/23 05:43:38;;;;;;;3.60;1.67;;;8.00;1.00;;;;;;5044950;28;20267;-70
2022/11/23 05:46:03;;;;;;;5.23;2.00;;;7.90;1.00;;;;;;5035395;28;20181;-70
2022/11/23 05:48:29;;;;;;;5.27;2.00;;;7.90;1.00;;;;;;5011987;28;20644;-70
2022/11/23 05:50:54;;;;;;;4.13;2.60;;;7.80;1.00;;;;;;5040848;28;20701;-70
2022/11/23 05:53:20;;;;;;;7.87;3.03;;;7.80;1.00;;;;;;5051265;28;20176;-70
2022/11/23 05:55:45;;;;;;;4.23;2.40;;;7.80;1.00;;;;;;5029268;28;20240;-70
2022/11/23 05:58:11;;;;;;;5.10;2.40;;;7.80;1.00;;;;;;5030874;28;20185;-70
2022/11/23 06:00:37;;;;;;;5.57;3.13;;;7.80;1.00;;;;;;5035100;28;20197;-70
2022/11/23 06:03:03;;;;;;;5.87;2.70;;;7.80;1.00;;;;;;5030339;28;20237;-70
2022/11/23 06:05:29;;;;;;;7.33;2.57;;;7.80;1.00;;;;;;5028903;28;20174;-70
2022/11/23 06:07:55;;;;;;;6.87;2.53;;;7.80;1.00;;;;;;5029637;28;20443;-70
2022/11/23 06:10:21;;;;;;;5.47;2.40;;;7.80;1.00;;;;;;5037980;28;20435;-71
2022/11/23 06:12:46;;;;;;;5.47;2.20;;;7.80;1.00;;;;;;5039048;28;20212;-70
2022/11/23 06:15:12;;;;;;;4.90;2.07;;;7.80;1.00;;;;;;5031359;28;20266;-70
2022/11/23 06:17:38;;;;;;;3.30;1.90;;;7.70;1.00;;;;;;5039599;28;20675;-69
2022/11/23 06:20:07;;;;;;;5.03;2.10;;;7.70;1.00;;;;;;5040168;28;20181;-70
2022/11/23 06:22:33;;;;;;;4.70;2.10;;;7.70;1.00;;;;;;5041175;28;20316;-70
2022/11/23 06:24:58;;;;;;;5.60;2.00;;;7.70;1.00;;;;;;5038624;28;21038;-70
2022/11/23 06:27:24;;;;;;;4.30;2.30;;;7.80;1.00;;;;;;5033622;28;20185;-70
2022/11/23 06:29:49;;;;;;;5.47;2.10;;;7.80;1.00;;;;;;5029708;28;20181;-70
2022/11/23 06:32:15;;;;;;;3.80;2.10;;;7.80;1.00;;;;;;5036284;28;20607;-70
2022/11/23 06:34:41;;;;;;;3.93;2.10;;;7.80;1.00;;;;;;5016756;28;20183;-70
2022/11/23 06:37:07;;;;;;;6.80;2.53;;;7.80;1.00;;;;;;5030635;28;20679;-70
2022/11/23 06:39:32;;;;;;;6.60;2.17;;;7.80;1.00;;;;;;5028959;28;20188;-70
2022/11/23 06:41:58;;;;;;;4.53;1.73;;;7.80;1.00;;;;;;5035027;28;20234;-71
2022/11/23 06:44:23;;;;;;;3.63;1.83;;;7.70;1.00;;;;;;5022938;28;20209;-70
2022/11/23 06:46:49;;;;;;;5.20;2.40;;;7.60;1.00;;;;;;5038585;28;20395;-70
2022/11/23 06:49:16;;;;;;;4.30;1.90;;;7.50;1.00;;;;;;5033523;28;20193;-69
2022/11/23 06:51:41;;;;;;;4.90;2.13;;;7.40;1.00;;;;;;5037960;28;20472;-70
2022/11/23 06:54:08;;;;;;;5.83;2.17;;;7.40;1.00;;;;;;5030223;28;20566;-70
2022/11/23 06:56:33;;;;;;;3.93;2.20;;;7.30;1.00;;;;;;5028565;28;20173;-70
2022/11/23 06:58:59;;;;;;;4.20;1.93;;;7.30;1.00;;;;;;5037220;28;20463;-70
2022/11/23 07:01:24;;;;;;;5.73;2.40;;;7.20;1.00;;;;;;5033339;28;20733;-70
2022/11/23 07:03:50;;;;;;;6.83;2.30;;;7.20;1.00;;;;;;5043826;28;20209;-70
2022/11/23 07:06:15;;;;;;;6.00;2.60;;;7.30;1.00;;;;;;5033662;28;20182;-70
2022/11/23 07:08:42;;;;;;;8.87;2.37;;;7.20;1.00;;;;;;5022683;28;20933;-70
2022/11/23 07:11:10;;;;;;;12.90;2.10;;;7.20;1.00;;;;;;5026918;28;20193;-71
2022/11/23 07:13:35;;;;;;;6.73;2.77;;;7.20;1.00;;;;;;5025977;28;20441;-69
2022/11/23 07:16:01;;;;;;;5.10;2.07;;;7.20;1.00;;;;;;5031376;28;20920;-70
2022/11/23 07:18:27;;;;;;;3.73;1.80;;;7.10;1.00;;;;;;5041140;28;20479;-70
2022/11/23 07:20:52;;;;;;;8.23;3.33;;;7.10;1.00;;;;;;5035802;28;20743;-66
2022/11/23 07:23:18;;;;;;;6.47;2.28;;;7.20;1.00;;;;;;5032452;28;20814;-70
2022/11/23 07:25:43;;;;;;;6.73;2.60;;;7.20;1.00;;;;;;5014094;28;20185;-70
2022/11/23 07:28:11;;;;;;;6.53;2.17;;;7.30;1.00;;;;;;5022504;28;20184;-70
2022/11/23 07:30:37;;;;;;;6.30;2.07;;;7.60;1.00;;;;;;5019380;28;20170;-71
2022/11/23 07:33:08;;;;;;;6.23;2.30;;;7.60;1.00;;;;;;5051093;22;20495;-71
2022/11/23 07:35:34;;;;;;;6.83;2.20;;;7.60;1.00;;;;;;5040403;28;20185;-70
2022/11/23 07:38:01;;;;;;;7.60;2.40;;;7.60;1.00;;;;;;5040076;28;20872;-70
2022/11/23 07:40:28;;;;;;;5.50;3.53;;;7.60;1.00;;;;;;5047315;28;20447;-70
2022/11/23 07:42:59;;;;;;;5.93;2.50;;;7.60;1.00;;;;;;5048626;28;20641;-70
2022/11/23 07:45:25;;;;;;;6.10;2.67;;;7.50;1.00;;;;;;5046593;28;20471;-71
2022/11/23 07:48:00;;;;;;;5.53;2.63;;;7.50;1.00;;;;;;5048947;28;20838;-70
2022/11/23 07:50:26;;;;;;;5.23;2.30;;;7.50;1.00;;;;;;5046030;28;20215;-70
2022/11/23 07:52:52;;;;;;;4.53;2.40;;;7.50;1.00;;;;;;5043187;28;20482;-70
2022/11/23 07:55:19;;;;;;;7.03;2.50;;;9.10;1.00;;;;;;5031416;28;20436;-71
2022/11/23 07:57:44;;;;;;;7.57;2.63;;;7.60;1.00;;;;;;5037126;28;20530;-70
2022/11/23 08:00:11;;;;;;;4.23;2.33;;;7.60;1.00;;;;;;5044277;28;20192;-70
2022/11/23 08:02:37;;;;;;;3.70;1.97;;;7.70;1.00;;;;;;5047791;28;20726;-70
2022/11/23 08:05:03;;;;;;;5.83;2.60;;;7.70;1.00;;;;;;5044281;28;20551;-70
2022/11/23 08:07:28;;;;;;;7.90;2.40;;;7.80;1.00;;;;;;5045120;28;20181;-71
2022/11/23 08:09:54;;;;;;;5.00;2.10;;;7.80;1.00;;;;;;5047838;28;20188;-70
2022/11/23 08:12:19;;;;;;;8.67;2.37;;;7.80;1.00;;;;;;5045298;28;20204;-70
2022/11/23 08:14:45;;;;;;;9.30;4.17;;;7.80;1.00;;;;;;5042112;28;20174;-70
2022/11/23 08:17:10;;;;;;;9.07;3.10;;;7.90;1.00;;;;;;5040909;28;20181;-70
2022/11/23 08:19:36;;;;;;;9.53;3.33;;;7.90;1.00;;;;;;5046450;28;20181;-70
2022/11/23 08:22:01;;;;;;;5.57;2.70;;;7.90;1.00;;;;;;5048581;28;20287;-70
2022/11/23 08:24:27;;;;;;;7.43;3.30;;;8.00;1.00;;;;;;5046254;28;20679;-70
2022/11/23 08:26:52;;;;;;;12.00;3.73;;;8.00;1.00;;;;;;5048444;28;20189;-71
2022/11/23 08:29:18;;;;;;;7.10;2.63;;;8.10;1.00;;;;;;5049640;28;20181;-71
2022/11/23 08:31:43;;;;;;;5.87;2.30;;;8.20;1.00;;;;;;5045538;28;20721;-70
2022/11/23 08:34:09;;;;;;;7.23;2.10;;;8.20;1.00;;;;;;5052252;28;20185;-71
2022/11/23 08:36:34;;;;;;;5.20;2.07;;;8.30;1.00;;;;;;5036834;28;20700;-70
2022/11/23 08:39:00;;;;;;;5.03;2.53;;;8.40;1.00;;;;;;5048499;28;20186;-70
2022/11/23 08:41:26;;;;;;;4.50;2.07;;;8.50;1.00;;;;;;5033087;28;20181;-69
2022/11/23 08:43:51;;;;;;;5.50;2.33;;;8.50;1.00;;;;;;5048959;28;20211;-70
2022/11/23 08:46:18;;;;;;;8.37;2.10;;;8.60;1.00;;;;;;5049437;28;20423;-70
2022/11/23 08:48:43;;;;;;;4.57;2.30;;;8.70;1.00;;;;;;5052427;28;20316;-70
2022/11/23 08:51:09;;;;;;;3.37;1.97;;;8.80;1.00;;;;;;5043436;28;20496;-70
2022/11/23 08:53:35;;;;;;;5.87;2.50;;;8.80;1.00;;;;;;5039492;28;20579;-70
2022/11/23 08:56:02;;;;;;;10.17;2.73;;;9.00;1.00;;;;;;5045156;28;20223;-70
2022/11/23 08:58:28;;;;;;;4.83;2.73;;;9.10;1.00;;;;;;5047504;28;20201;-70
2022/11/23 09:00:53;;;;;;;8.07;2.80;;;9.40;1.00;;;;;;5050548;28;20443;-69
2022/11/23 09:03:19;;;;;;;3.80;2.10;;;9.90;1.00;;;;;;5047404;28;20648;-71
2022/11/23 09:05:44;;;;;;;7.07;2.10;;;10.70;1.00;;;;;;5033889;28;20181;-70
2022/11/23 09:08:10;;;;;;;4.63;2.07;;;11.60;1.00;;;;;;5049713;28;20176;-71
2022/11/23 09:10:36;;;;;;;4.47;2.40;;;12.90;1.00;;;;;;5045805;28;20169;-70
2022/11/23 09:13:02;;;;;;;4.63;2.73;;;14.20;1.00;;;;;;5048283;28;20197;-70
2022/11/23 09:15:28;;;;;;;4.97;2.50;;;15.50;1.00;;;;;;5050794;28;20454;-71
2022/11/23 09:17:56;;;;;;;6.87;2.50;;;16.80;1.00;;;;;;5047323;28;20248;-71
2022/11/23 09:20:21;;;;;;;6.80;2.93;;;17.90;1.00;;;;;;5034298;28;20425;-71
2022/11/23 09:22:51;;;;;;;5.90;3.00;;;18.80;1.00;;;;;;5044919;28;20488;-71
2022/11/23 09:25:17;;;;;;;7.83;3.07;;;20.00;1.00;;;;;;5052092;28;20181;-71
2022/11/23 09:27:42;;;;;;;6.47;3.03;;;20.90;1.00;;;;;;5048676;28;20423;-72
2022/11/23 09:30:08;;;;;;;7.33;2.93;;;21.90;1.00;;;;;;5038617;28;20277;-72
2022/11/23 09:32:34;;;;;;;6.30;2.83;;;22.20;1.00;;;;;;5042239;28;20249;-70
2022/11/23 09:34:59;;;;;;;6.60;2.63;;;22.70;1.00;;;;;;5045440;28;20858;-71
2022/11/23 09:37:25;;;;;;;5.70;2.80;;;22.50;1.00;;;;;;5047838;28;20184;-72
2022/11/23 09:39:51;;;;;;;8.17;3.00;;;22.20;1.00;;;;;;5049034;28;20639;-71
2022/11/23 09:42:34;;;;;;;4.87;2.30;;;21.90;1.00;;;;;;5031873;28;20193;-71
2022/11/23 09:45:10;;;;;;;4.27;2.60;;;21.80;1.00;;;;;;5043966;28;20208;-71
2022/11/23 09:47:42;;;;;;;5.43;2.60;;;22.70;1.00;;;;;;5048592;28;20427;-71
2022/11/23 09:50:10;;;;;;;6.53;2.37;;;23.70;1.00;;;;;;5036285;28;20802;-72
2022/11/23 09:52:41;;;;;;;7.63;2.83;;;23.80;1.00;;;;;;5048031;28;20445;-71
2022/11/23 09:55:16;;;;;;;7.00;2.50;;;24.40;1.00;;;;;;5049572;28;20498;-71
2022/11/23 09:57:43;;;;;;;5.17;2.57;;;24.50;1.00;;;;;;5047116;28;20427;-72
2022/11/23 10:00:21;;;;;;;6.07;2.73;;;24.30;1.00;;;;;;5048973;28;20457;-72
2022/11/23 10:02:47;;;;;;;6.37;2.67;;;24.40;1.00;;;;;;5047821;28;20435;-71
2022/11/23 10:05:20;;;;;;;5.80;2.70;;;23.80;1.00;;;;;;5042761;28;20458;-72
2022/11/23 10:08:00;;;;;;;8.57;2.80;;;23.70;1.00;;;;;;5045211;28;20521;-71
2022/11/23 10:10:33;;;;;;;5.60;2.67;;;23.80;1.00;;;;;;5046674;28;20485;-72
2022/11/23 10:13:41;;;;;;;6.30;2.50;;;24.50;1.00;;;;;;5036992;28;20444;-71
2022/11/23 10:16:27;;;;;;;5.07;2.50;;;25.20;1.00;;;;;;5035917;28;20424;-71
2022/11/23 10:19:17;;;;;;;5.83;2.63;;;25.50;1.00;;;;;;5031425;28;20432;-71
2022/11/23 10:21:58;;;;;;;5.57;2.57;;;25.50;1.00;;;;;;5042832;28;20426;-71
2022/11/23 10:24:37;;;;;;;7.23;2.27;;;25.10;1.00;;;;;;5047048;28;20451;-71
2022/11/23 10:27:12;;;;;;;5.70;2.67;;;24.70;1.00;;;;;;5048265;28;20430;-71
2022/11/23 10:29:38;;;;;;;7.60;2.77;;;24.50;1.00;;;;;;5050746;28;20410;-72
2022/11/23 10:32:11;;;;;;;6.97;2.70;;;24.60;1.00;;;;;;5047981;28;20462;-72
2022/11/23 10:34:55;;;;;;;6.03;2.80;;;25.30;1.00;;;;;;5046086;28;20443;-71
2022/11/23 10:37:21;;;;;;;7.47;2.60;;;25.20;1.00;;;;;;5046951;28;20430;-71
2022/11/23 10:39:47;;;;;;;4.23;2.53;;;25.80;1.00;;;;;;5042183;28;20435;-72
2022/11/23 10:42:24;;;;;;;6.53;2.53;;;26.50;1.00;;;;;;5050599;28;20268;-72
2022/11/23 10:44:51;;;;;;;7.67;2.50;;;26.50;1.00;;;;;;5048367;28;20192;-72
2022/11/23 10:47:38;;;;;;;8.40;2.80;;;26.30;1.00;;;;;;5050070;28;20414;-71
2022/11/23 10:50:25;;;;;;;7.10;3.17;;;25.90;1.00;;;;;;5049906;28;20458;-72
2022/11/23 10:52:58;;;;;;;9.50;3.00;;;25.20;1.00;;;;;;5046973;28;20954;-72
2022/11/23 10:55:28;;;;;;;6.27;2.80;;;25.60;1.00;;;;;;5039279;28;20427;-72
2022/11/23 10:57:54;;;;;;;6.63;2.60;;;25.90;1.00;;;;;;5037127;28;20523;-72
2022/11/23 11:00:21;;;;;;;6.50;3.10;;;25.80;1.00;;;;;;5039893;28;20837;-71
2022/11/23 11:02:48;;;;;;;6.90;2.80;;;25.90;1.00;;;;;;5041373;28;20427;-71
2022/11/23 11:05:31;;;;;;;6.20;2.63;;;25.50;1.00;;;;;;5042729;28;20467;-72
2022/11/23 11:08:00;;;;;;;6.10;3.00;;;26.00;1.00;;;;;;5048209;28;20518;-71
2022/11/23 11:10:33;;;;;;;5.10;2.80;;;26.50;1.00;;;;;;5044778;28;20841;-71
2022/11/23 11:12:58;;;;;;;5.03;2.93;;;27.10;1.00;;;;;;5048707;28;20432;-71
2022/11/23 11:15:24;;;;;;;7.67;3.03;;;27.50;1.00;;;;;;5049608;28;20502;-72
2022/11/23 11:17:57;;;;;;;5.97;3.20;;;27.30;1.00;;;;;;5045610;28;20173;-69
2022/11/23 11:20:23;;;;;;;6.80;2.83;;;27.70;1.00;;;;;;5042479;28;20254;-71
2022/11/23 11:22:49;;;;;;;5.50;2.60;;;28.30;1.00;;;;;;5047524;28;20937;-72
2022/11/23 11:25:41;;;;;;;5.97;3.03;;;28.10;1.00;;;;;;5048235;28;20204;-72
2022/11/23 11:28:25;;;;;;;7.37;2.90;;;27.90;1.00;;;;;;5041352;28;20392;-71
2022/11/23 11:31:10;;;;;;;4.77;2.70;;;27.80;1.00;;;;;;5041046;28;20419;-71
2022/11/23 11:33:43;;;;;;;10.60;3.37;;;27.80;1.00;;;;;;5038195;28;20310;-70
2022/11/23 11:36:13;;;;;;;6.40;3.17;;;27.80;1.00;;;;;;5049824;28;20398;-71
2022/11/23 11:38:43;;;;;;;7.17;3.33;;;28.00;1.00;;;;;;5044274;28;20619;-70
2022/11/23 11:41:12;;;;;;;8.57;3.03;;;28.40;1.00;;;;;;5047138;28;20177;-71
2022/11/23 11:43:40;;;;;;;6.13;2.90;;;27.40;1.00;;;;;;5047707;28;20828;-71
2022/11/23 11:46:21;;;;;;;9.00;3.10;;;27.20;1.00;;;;;;5045284;28;20211;-71
2022/11/23 11:48:53;;;;;;;7.20;2.83;;;27.90;1.00;;;;;;5048317;28;20260;-71
2022/11/23 11:51:40;;;;;;;7.87;3.40;;;28.10;1.00;;;;;;5049138;28;20252;-72
2022/11/23 11:54:48;;;;;;;6.80;3.20;;;27.90;1.00;;;;;;5040486;28;20232;-71
2022/11/23 11:57:23;;;;;;;6.10;2.90;;;28.20;1.00;;;;;;5007246;28;20220;-72
2022/11/23 11:59:54;;;;;;;9.20;3.13;;;28.60;1.00;;;;;;5036583;28;20385;-72
2022/11/23 12:02:29;;;;;;;8.43;2.80;;;28.70;1.00;;;;;;5041681;28;20376;-70
2022/11/23 12:05:09;;;;;;;8.57;3.33;;;28.20;1.00;;;;;;5046222;28;20475;-72
2022/11/23 12:07:42;;;;;;;6.33;3.00;;;28.70;1.00;;;;;;5049182;28;20180;-72
2022/11/23 12:10:28;;;;;;;6.60;2.80;;;28.60;1.00;;;;;;5047473;28;20251;-72
2022/11/23 12:12:55;;;;;;;7.20;4.60;;;28.10;1.00;;;;;;5050877;28;20208;-72
2022/11/23 12:15:36;;;;;;;10.00;4.47;;;28.50;1.00;;;;;;5042280;28;20263;-72
2022/11/23 12:18:24;;;;;;;8.07;3.50;;;29.60;1.00;;;;;;5046077;28;20226;-72
2022/11/23 12:21:31;;;;;;;9.43;3.03;;;29.90;1.00;;;;;;5048987;28;20200;-72
2022/11/23 12:24:44;;;;;;;8.77;3.23;;;28.60;1.00;;;;;;5022667;28;20223;-72
2022/11/23 12:27:46;;;;;;;9.47;2.43;;;26.10;1.00;;;;;;5005625;28;20688;-72
2022/11/23 12:30:47;;;;;;;6.50;2.30;;;26.00;1.00;;;;;;5045819;28;20429;-72
2022/11/23 12:33:32;;;;;;;7.37;2.33;;;26.50;1.00;;;;;;5051615;28;20210;-72
2022/11/23 12:36:28;;;;;;;6.73;2.60;;;26.20;1.00;;;;;;5050372;28;20737;-71
2022/11/23 12:38:55;;;;;;;6.87;2.30;;;26.00;1.00;;;;;;5048289;28;20419;-71
2022/11/23 12:41:35;;;;;;;7.93;2.67;;;24.50;1.00;;;;;;5044746;28;20420;-71
2022/11/23 12:44:03;;;;;;;8.57;2.60;;;23.60;1.00;;;;;;5043157;28;20451;-71
2022/11/23 12:46:53;;;;;;;5.83;2.00;;;22.70;1.00;;;;;;5043442;28;20480;-72
2022/11/23 12:49:40;;;;;;;5.00;2.50;;;21.20;1.00;;;;;;5049014;28;20931;-71
2022/11/23 12:52:14;;;;;;;3.57;1.73;;;20.30;1.00;;;;;;5052384;28;20483;-72
2022/11/23 12:55:05;;;;;;;4.00;1.67;;;19.20;1.00;;;;;;5043389;28;20686;-71
2022/11/23 12:57:37;;;;;;;5.03;1.80;;;18.10;1.00;;;;;;5042726;28;20704;-72
2022/11/23 13:00:16;;;;;;;2.70;1.30;;;17.20;1.00;;;;;;5044713;28;20434;-70
2022/11/23 13:02:57;;;;;;;4.20;1.77;;;16.40;1.00;;;;;;5043871;28;20463;-71
2022/11/23 13:05:41;;;;;;;3.97;1.67;;;15.50;1.00;;;;;;5039623;28;20462;-71
2022/11/23 13:08:32;;;;;;;3.63;1.40;;;15.00;1.00;;;;;;5034136;28;20784;-72
2022/11/23 13:11:43;;;;;;;5.23;2.00;;;14.70;1.00;;;;;;5046495;28;20427;-71
2022/11/23 13:14:17;;;;;;;4.43;1.20;;;14.30;1.00;;;;;;5046407;28;21250;-72
2022/11/23 13:16:53;;;;;;;3.90;1.47;;;14.20;1.00;;;;;;5050576;28;20462;-71